Terminal Aerodrome Forecast
Issued by NWS Sterling, VA

Home | Current Version | Previous Version | Text Only | Print | Product List | Glossary On
Versions: 1 2 3 4 5 6 7 8 9 10 11 12 13 14 15
000
FTUS41 KLWX 021740
TAFCHO
TAF
KCHO 021740Z 0218/0318 00000KT P6SM BKN050
     FM022100 VRB03KT 5SM -SHRA VCTS SCT050CB OVC070
     FM030100 VRB03KT 5SM BR SCT050 OVC070
     FM030600 00000KT 3SM BR BKN025 OVC050
     FM030900 00000KT 2SM BR SCT008 OVC015
     FM031300 00000KT 2SM -SHRA BR SCT008 OVC025
     FM031600 VRB03KT 3SM -SHRA BR SCT015 OVC045=

USA.gov is the U.S. government's official web portal to all federal, state and local government web resources and services.